Terminal Aerodrome Forecast
Issued by NWS Austin/San Antonio, TX

Home | Current Version | Previous Version | Text Only | Print | Product List | Glossary On
Versions: 1 2 3 4 5 6 7 8 9 10 11 12 13 14 15 16 17
000
FTUS44 KEWX 101157
TAFAUS
TAF
KAUS 101157Z 1012/1118 00000KT P6SM BKN029 OVC060
     FM101600 15005KT P6SM OVC015
     FM110000 15007KT 6SM BR VCSH OVC009
     FM110400 17003KT 2SM -DZ BR OVC004
     FM111400 21008KT P6SM BKN008 OVC025=

USA.gov is the U.S. government's official web portal to all federal, state and local government web resources and services.